Forney's Hourly Summary for Wednesday, March 15, 2017
Hour Temp
(f)
RH
(%)
Solar Rad.
(MJ/m2)
Rainfall
(in)
Wind
(mph)
3/15/2017 12:00 AM 50 52 0 0 2.7
3/15/2017 1:00 AM 49 54 0 0 3.35
3/15/2017 2:00 AM 47 57 0 0 4.21
3/15/2017 3:00 AM 45 61 0 0 4.1
3/15/2017 4:00 AM 46 62 0 0 4.98
3/15/2017 5:00 AM 46 63 0 0 4.19
3/15/2017 6:00 AM 46 66 0 0 3.29
3/15/2017 7:00 AM 45 71 0 0 1.63
3/15/2017 8:00 AM 45 70 0.01 0 3.61
3/15/2017 9:00 AM 45 69 0.23 0 4.26
3/15/2017 10:00 AM 47 65 0.75 0 4.58
3/15/2017 11:00 AM 49 61 1.41 0 5.24
3/15/2017 12:00 PM 50 58 2.38 0 5.28
3/15/2017 1:00 PM 53 54 2.59 0 4.73
3/15/2017 2:00 PM 55 51 2.48 0 4.4
3/15/2017 3:00 PM 58 48 2.69 0 4.85
3/15/2017 4:00 PM 60 46 2.36 0 4.37
3/15/2017 5:00 PM 61 44 1.81 0 3.97
3/15/2017 6:00 PM 62 45 1.12 0 3.79
3/15/2017 7:00 PM 62 45 0.45 0 3.52
3/15/2017 8:00 PM 59 49 0.03 0 2.17
3/15/2017 9:00 PM 57 55 0 0 2.59
3/15/2017 10:00 PM 56 57 0 0 4.03
3/15/2017 11:00 PM 54 59 0 0 3.61
Data Summary 51 56 18.31 0.00 3.89